sensor_id;sensor_type;location;lat;lon;timestamp;temperature;humidity
47174;DHT22;36730;49.036;9.094;2022-11-20T00:00:39;24.00;55.40
47174;DHT22;36730;49.036;9.094;2022-11-20T00:03:05;24.00;55.30
47174;DHT22;36730;49.036;9.094;2022-11-20T00:05:31;24.00;55.40
47174;DHT22;36730;49.036;9.094;2022-11-20T00:07:57;24.00;55.40
47174;DHT22;36730;49.036;9.094;2022-11-20T00:10:22;24.00;55.40
47174;DHT22;36730;49.036;9.094;2022-11-20T00:12:48;24.00;55.40
47174;DHT22;36730;49.036;9.094;2022-11-20T00:15:13;24.00;55.30
47174;DHT22;36730;49.036;9.094;2022-11-20T00:17:39;24.00;55.30
47174;DHT22;36730;49.036;9.094;2022-11-20T00:20:04;24.00;55.40
47174;DHT22;36730;49.036;9.094;2022-11-20T00:22:30;24.00;55.40
47174;DHT22;36730;49.036;9.094;2022-11-20T00:24:55;24.00;55.40
47174;DHT22;36730;49.036;9.094;2022-11-20T00:27:22;24.00;55.40
47174;DHT22;36730;49.036;9.094;2022-11-20T00:29:48;24.00;55.30
47174;DHT22;36730;49.036;9.094;2022-11-20T00:32:13;24.00;55.40
47174;DHT22;36730;49.036;9.094;2022-11-20T00:34:38;24.00;55.30
47174;DHT22;36730;49.036;9.094;2022-11-20T00:37:04;24.00;55.30
47174;DHT22;36730;49.036;9.094;2022-11-20T00:39:29;24.00;55.40
47174;DHT22;36730;49.036;9.094;2022-11-20T00:41:55;24.00;55.30
47174;DHT22;36730;49.036;9.094;2022-11-20T00:44:20;24.00;55.40
47174;DHT22;36730;49.036;9.094;2022-11-20T00:46:46;24.00;55.30
47174;DHT22;36730;49.036;9.094;2022-11-20T00:49:11;24.00;55.30
47174;DHT22;36730;49.036;9.094;2022-11-20T00:51:37;24.00;55.40
47174;DHT22;36730;49.036;9.094;2022-11-20T00:54:02;24.00;55.40
47174;DHT22;36730;49.036;9.094;2022-11-20T00:56:28;24.00;55.40
47174;DHT22;36730;49.036;9.094;2022-11-20T00:58:54;24.00;55.40
47174;DHT22;36730;49.036;9.094;2022-11-20T01:01:23;24.00;55.40
47174;DHT22;36730;49.036;9.094;2022-11-20T01:03:55;24.00;55.40
47174;DHT22;36730;49.036;9.094;2022-11-20T01:06:21;24.00;55.40
47174;DHT22;36730;49.036;9.094;2022-11-20T01:08:48;24.00;55.40
47174;DHT22;36730;49.036;9.094;2022-11-20T01:11:15;24.00;55.40
47174;DHT22;36730;49.036;9.094;2022-11-20T01:13:41;24.00;55.30
47174;DHT22;36730;49.036;9.094;2022-11-20T01:16:08;23.90;55.40
47174;DHT22;36730;49.036;9.094;2022-11-20T01:18:34;24.00;55.40
47174;DHT22;36730;49.036;9.094;2022-11-20T01:21:04;24.00;55.50
47174;DHT22;36730;49.036;9.094;2022-11-20T01:23:36;24.00;55.40
47174;DHT22;36730;49.036;9.094;2022-11-20T01:26:06;24.00;55.40
47174;DHT22;36730;49.036;9.094;2022-11-20T01:28:33;24.00;55.30
47174;DHT22;36730;49.036;9.094;2022-11-20T01:30:58;24.00;55.40
47174;DHT22;36730;49.036;9.094;2022-11-20T01:33:24;24.00;55.40
47174;DHT22;36730;49.036;9.094;2022-11-20T01:35:50;24.00;55.50
47174;DHT22;36730;49.036;9.094;2022-11-20T01:38:16;24.00;56.10
47174;DHT22;36730;49.036;9.094;2022-11-20T01:40:41;24.00;55.50
47174;DHT22;36730;49.036;9.094;2022-11-20T01:43:17;24.00;55.40
47174;DHT22;36730;49.036;9.094;2022-11-20T01:48:23;24.00;55.50
47174;DHT22;36730;49.036;9.094;2022-11-20T01:50:51;24.00;55.50
47174;DHT22;36730;49.036;9.094;2022-11-20T01:53:18;24.00;55.40
47174;DHT22;36730;49.036;9.094;2022-11-20T01:55:53;24.00;55.40
47174;DHT22;36730;49.036;9.094;2022-11-20T01:58:21;24.00;55.40
47174;DHT22;36730;49.036;9.094;2022-11-20T02:00:48;24.00;55.50
47174;DHT22;36730;49.036;9.094;2022-11-20T02:03:15;24.00;55.40
47174;DHT22;36730;49.036;9.094;2022-11-20T02:05:43;24.00;55.50
47174;DHT22;36730;49.036;9.094;2022-11-20T02:08:10;24.00;55.50
47174;DHT22;36730;49.036;9.094;2022-11-20T02:10:36;24.00;55.70
47174;DHT22;36730;49.036;9.094;2022-11-20T02:13:01;24.00;55.80
47174;DHT22;36730;49.036;9.094;2022-11-20T02:15:46;23.90;55.60
47174;DHT22;36730;49.036;9.094;2022-11-20T02:18:13;24.00;55.70
47174;DHT22;36730;49.036;9.094;2022-11-20T02:20:40;24.00;55.70
47174;DHT22;36730;49.036;9.094;2022-11-20T02:23:12;24.00;55.70
47174;DHT22;36730;49.036;9.094;2022-11-20T02:25:37;24.00;55.70
47174;DHT22;36730;49.036;9.094;2022-11-20T02:28:04;23.90;55.90
47174;DHT22;36730;49.036;9.094;2022-11-20T02:30:30;24.00;55.60
47174;DHT22;36730;49.036;9.094;2022-11-20T02:32:55;24.00;55.60
47174;DHT22;36730;49.036;9.094;2022-11-20T02:37:47;24.00;55.60
47174;DHT22;36730;49.036;9.094;2022-11-20T02:40:13;24.00;55.70
47174;DHT22;36730;49.036;9.094;2022-11-20T02:42:39;24.00;55.70
47174;DHT22;36730;49.036;9.094;2022-11-20T02:45:04;23.90;55.70
47174;DHT22;36730;49.036;9.094;2022-11-20T02:47:30;23.90;55.70
47174;DHT22;36730;49.036;9.094;2022-11-20T02:49:56;24.00;55.70
47174;DHT22;36730;49.036;9.094;2022-11-20T02:52:21;24.00;55.70
47174;DHT22;36730;49.036;9.094;2022-11-20T02:54:47;23.90;55.70
47174;DHT22;36730;49.036;9.094;2022-11-20T02:57:12;24.00;55.70
47174;DHT22;36730;49.036;9.094;2022-11-20T02:59:38;24.00;55.70
47174;DHT22;36730;49.036;9.094;2022-11-20T03:02:03;24.00;55.70
47174;DHT22;36730;49.036;9.094;2022-11-20T03:04:30;24.00;55.80
47174;DHT22;36730;49.036;9.094;2022-11-20T03:06:55;23.90;55.70
47174;DHT22;36730;49.036;9.094;2022-11-20T03:09:21;24.00;55.80
47174;DHT22;36730;49.036;9.094;2022-11-20T03:11:46;24.00;56.30
47174;DHT22;36730;49.036;9.094;2022-11-20T03:14:12;24.00;55.70
47174;DHT22;36730;49.036;9.094;2022-11-20T03:16:38;24.00;55.80
47174;DHT22;36730;49.036;9.094;2022-11-20T03:19:03;23.90;55.70
47174;DHT22;36730;49.036;9.094;2022-11-20T03:21:29;24.00;55.80
47174;DHT22;36730;49.036;9.094;2022-11-20T03:23:54;24.00;55.70
47174;DHT22;36730;49.036;9.094;2022-11-20T03:26:21;24.00;55.80
47174;DHT22;36730;49.036;9.094;2022-11-20T03:28:47;24.00;55.70
47174;DHT22;36730;49.036;9.094;2022-11-20T03:31:14;24.00;55.80
47174;DHT22;36730;49.036;9.094;2022-11-20T03:33:40;24.00;55.80
47174;DHT22;36730;49.036;9.094;2022-11-20T03:36:07;24.00;55.70
47174;DHT22;36730;49.036;9.094;2022-11-20T03:38:33;24.00;55.70
47174;DHT22;36730;49.036;9.094;2022-11-20T03:41:00;24.00;55.80
47174;DHT22;36730;49.036;9.094;2022-11-20T03:43:26;24.00;55.90
47174;DHT22;36730;49.036;9.094;2022-11-20T03:45:51;24.00;55.90
47174;DHT22;36730;49.036;9.094;2022-11-20T03:48:17;24.00;55.90
47174;DHT22;36730;49.036;9.094;2022-11-20T03:50:42;24.00;55.90
47174;DHT22;36730;49.036;9.094;2022-11-20T03:53:07;24.00;55.90
47174;DHT22;36730;49.036;9.094;2022-11-20T03:55:33;24.00;55.90
47174;DHT22;36730;49.036;9.094;2022-11-20T03:57:58;24.00;55.90
47174;DHT22;36730;49.036;9.094;2022-11-20T04:00:24;24.00;55.90
47174;DHT22;36730;49.036;9.094;2022-11-20T04:02:49;24.00;55.90
47174;DHT22;36730;49.036;9.094;2022-11-20T04:05:15;24.00;55.90
47174;DHT22;36730;49.036;9.094;2022-11-20T04:07:40;24.00;55.90
47174;DHT22;36730;49.036;9.094;2022-11-20T04:10:06;24.00;55.90
47174;DHT22;36730;49.036;9.094;2022-11-20T04:12:32;24.00;56.00
47174;DHT22;36730;49.036;9.094;2022-11-20T04:14:57;24.00;55.90
47174;DHT22;36730;49.036;9.094;2022-11-20T04:17:23;24.00;55.90
47174;DHT22;36730;49.036;9.094;2022-11-20T04:19:48;24.00;55.90
47174;DHT22;36730;49.036;9.094;2022-11-20T04:22:14;24.00;56.00
47174;DHT22;36730;49.036;9.094;2022-11-20T04:24:39;24.00;56.00
47174;DHT22;36730;49.036;9.094;2022-11-20T04:27:05;24.00;56.10
47174;DHT22;36730;49.036;9.094;2022-11-20T04:29:30;24.00;56.10
47174;DHT22;36730;49.036;9.094;2022-11-20T04:31:56;24.00;56.10
47174;DHT22;36730;49.036;9.094;2022-11-20T04:34:21;24.00;56.20
47174;DHT22;36730;49.036;9.094;2022-11-20T04:36:47;24.00;56.00
47174;DHT22;36730;49.036;9.094;2022-11-20T04:39:12;24.00;56.00
47174;DHT22;36730;49.036;9.094;2022-11-20T04:41:39;24.00;56.10
47174;DHT22;36730;49.036;9.094;2022-11-20T04:44:05;24.00;56.10
47174;DHT22;36730;49.036;9.094;2022-11-20T04:46:39;24.00;56.00
47174;DHT22;36730;49.036;9.094;2022-11-20T04:49:05;24.00;56.10
47174;DHT22;36730;49.036;9.094;2022-11-20T04:51:30;24.00;56.10
47174;DHT22;36730;49.036;9.094;2022-11-20T04:53:56;24.00;56.00
47174;DHT22;36730;49.036;9.094;2022-11-20T04:56:21;24.00;56.00
47174;DHT22;36730;49.036;9.094;2022-11-20T04:58:47;24.00;56.60
47174;DHT22;36730;49.036;9.094;2022-11-20T05:01:13;24.00;56.10
47174;DHT22;36730;49.036;9.094;2022-11-20T05:03:39;24.00;56.10
47174;DHT22;36730;49.036;9.094;2022-11-20T05:06:06;24.00;56.30
47174;DHT22;36730;49.036;9.094;2022-11-20T05:08:32;24.00;56.30
47174;DHT22;36730;49.036;9.094;2022-11-20T05:11:01;24.00;56.20
47174;DHT22;36730;49.036;9.094;2022-11-20T05:13:27;24.00;56.20
47174;DHT22;36730;49.036;9.094;2022-11-20T05:15:53;24.00;56.20
47174;DHT22;36730;49.036;9.094;2022-11-20T05:18:18;24.00;56.20
47174;DHT22;36730;49.036;9.094;2022-11-20T05:20:44;24.00;56.20
47174;DHT22;36730;49.036;9.094;2022-11-20T05:23:09;24.00;56.20
47174;DHT22;36730;49.036;9.094;2022-11-20T05:25:35;24.00;56.20
47174;DHT22;36730;49.036;9.094;2022-11-20T05:28:00;24.00;56.20
47174;DHT22;36730;49.036;9.094;2022-11-20T05:30:25;24.00;56.10
47174;DHT22;36730;49.036;9.094;2022-11-20T05:32:51;24.00;56.20
47174;DHT22;36730;49.036;9.094;2022-11-20T05:35:16;24.00;56.20
47174;DHT22;36730;49.036;9.094;2022-11-20T05:37:42;24.00;56.20
47174;DHT22;36730;49.036;9.094;2022-11-20T05:40:08;24.00;56.30
47174;DHT22;36730;49.036;9.094;2022-11-20T05:42:33;24.00;56.20
47174;DHT22;36730;49.036;9.094;2022-11-20T05:44:59;24.00;56.20
47174;DHT22;36730;49.036;9.094;2022-11-20T05:47:26;24.00;56.20
47174;DHT22;36730;49.036;9.094;2022-11-20T05:49:51;24.00;56.20
47174;DHT22;36730;49.036;9.094;2022-11-20T05:52:17;24.00;56.20
47174;DHT22;36730;49.036;9.094;2022-11-20T05:54:42;24.00;56.20
47174;DHT22;36730;49.036;9.094;2022-11-20T05:57:08;24.00;56.20
47174;DHT22;36730;49.036;9.094;2022-11-20T05:59:33;24.00;56.20
47174;DHT22;36730;49.036;9.094;2022-11-20T06:01:59;24.00;56.20
47174;DHT22;36730;49.036;9.094;2022-11-20T06:04:24;24.00;56.80
47174;DHT22;36730;49.036;9.094;2022-11-20T06:06:50;24.00;56.20
47174;DHT22;36730;49.036;9.094;2022-11-20T06:09:15;24.00;56.30
47174;DHT22;36730;49.036;9.094;2022-11-20T06:11:41;24.00;57.00
47174;DHT22;36730;49.036;9.094;2022-11-20T06:14:06;24.00;56.20
47174;DHT22;36730;49.036;9.094;2022-11-20T06:16:32;24.00;56.40
47174;DHT22;36730;49.036;9.094;2022-11-20T06:18:57;24.00;56.30
47174;DHT22;36730;49.036;9.094;2022-11-20T06:21:22;24.00;56.20
47174;DHT22;36730;49.036;9.094;2022-11-20T06:23:48;24.00;56.20
47174;DHT22;36730;49.036;9.094;2022-11-20T06:26:24;24.00;56.20
47174;DHT22;36730;49.036;9.094;2022-11-20T06:28:50;24.00;56.20
47174;DHT22;36730;49.036;9.094;2022-11-20T06:31:16;24.00;56.30
47174;DHT22;36730;49.036;9.094;2022-11-20T06:33:42;24.00;56.20
47174;DHT22;36730;49.036;9.094;2022-11-20T06:36:08;24.10;56.40
47174;DHT22;36730;49.036;9.094;2022-11-20T06:38:34;24.00;56.30
47174;DHT22;36730;49.036;9.094;2022-11-20T06:41:00;24.00;56.20
47174;DHT22;36730;49.036;9.094;2022-11-20T06:43:25;24.00;56.40
47174;DHT22;36730;49.036;9.094;2022-11-20T06:45:52;24.00;56.30
47174;DHT22;36730;49.036;9.094;2022-11-20T06:48:18;24.00;56.30
47174;DHT22;36730;49.036;9.094;2022-11-20T06:50:43;24.00;56.30
47174;DHT22;36730;49.036;9.094;2022-11-20T06:53:09;24.00;56.30
47174;DHT22;36730;49.036;9.094;2022-11-20T06:55:34;24.00;56.40
47174;DHT22;36730;49.036;9.094;2022-11-20T06:57:59;24.00;56.30
47174;DHT22;36730;49.036;9.094;2022-11-20T07:00:25;24.10;56.40
47174;DHT22;36730;49.036;9.094;2022-11-20T07:02:50;24.00;56.30
47174;DHT22;36730;49.036;9.094;2022-11-20T07:05:16;24.00;56.30
47174;DHT22;36730;49.036;9.094;2022-11-20T07:07:42;24.00;56.30
47174;DHT22;36730;49.036;9.094;2022-11-20T07:10:07;24.00;56.90
47174;DHT22;36730;49.036;9.094;2022-11-20T07:12:33;24.00;56.30
47174;DHT22;36730;49.036;9.094;2022-11-20T07:14:58;24.00;56.20
47174;DHT22;36730;49.036;9.094;2022-11-20T07:17:24;24.00;56.30
47174;DHT22;36730;49.036;9.094;2022-11-20T07:19:49;24.00;56.40
47174;DHT22;36730;49.036;9.094;2022-11-20T07:22:15;24.00;56.30
47174;DHT22;36730;49.036;9.094;2022-11-20T07:24:40;24.00;56.40
47174;DHT22;36730;49.036;9.094;2022-11-20T07:27:06;24.00;56.40
47174;DHT22;36730;49.036;9.094;2022-11-20T07:29:31;24.00;56.50
47174;DHT22;36730;49.036;9.094;2022-11-20T07:31:57;24.00;56.40
47174;DHT22;36730;49.036;9.094;2022-11-20T07:34:22;24.00;56.40
47174;DHT22;36730;49.036;9.094;2022-11-20T07:36:48;24.00;56.40
47174;DHT22;36730;49.036;9.094;2022-11-20T07:39:13;24.00;56.40
47174;DHT22;36730;49.036;9.094;2022-11-20T07:41:38;24.00;57.00
47174;DHT22;36730;49.036;9.094;2022-11-20T07:44:04;24.00;56.40
47174;DHT22;36730;49.036;9.094;2022-11-20T07:46:30;24.00;56.40
47174;DHT22;36730;49.036;9.094;2022-11-20T07:48:55;24.00;56.40
47174;DHT22;36730;49.036;9.094;2022-11-20T07:51:20;24.00;56.40
47174;DHT22;36730;49.036;9.094;2022-11-20T07:53:46;24.00;56.40
47174;DHT22;36730;49.036;9.094;2022-11-20T07:56:11;24.10;57.00
47174;DHT22;36730;49.036;9.094;2022-11-20T07:58:39;24.10;56.80
47174;DHT22;36730;49.036;9.094;2022-11-20T08:01:05;24.00;56.60
47174;DHT22;36730;49.036;9.094;2022-11-20T08:03:31;24.00;56.60
47174;DHT22;36730;49.036;9.094;2022-11-20T08:06:00;24.00;56.60
47174;DHT22;36730;49.036;9.094;2022-11-20T08:08:28;24.00;56.60
47174;DHT22;36730;49.036;9.094;2022-11-20T08:10:56;24.10;56.60
47174;DHT22;36730;49.036;9.094;2022-11-20T08:13:41;24.10;56.60
47174;DHT22;36730;49.036;9.094;2022-11-20T08:16:25;24.00;56.50
47174;DHT22;36730;49.036;9.094;2022-11-20T08:18:51;24.00;56.50
47174;DHT22;36730;49.036;9.094;2022-11-20T08:21:16;24.10;56.60
47174;DHT22;36730;49.036;9.094;2022-11-20T08:23:42;24.10;56.60
47174;DHT22;36730;49.036;9.094;2022-11-20T08:26:07;24.00;56.60
47174;DHT22;36730;49.036;9.094;2022-11-20T08:28:33;24.00;56.60
47174;DHT22;36730;49.036;9.094;2022-11-20T08:31:02;24.10;56.70
47174;DHT22;36730;49.036;9.094;2022-11-20T08:33:27;24.00;56.80
47174;DHT22;36730;49.036;9.094;2022-11-20T08:35:53;24.00;56.80
47174;DHT22;36730;49.036;9.094;2022-11-20T08:38:19;24.00;56.80
47174;DHT22;36730;49.036;9.094;2022-11-20T08:40:44;24.00;56.80
47174;DHT22;36730;49.036;9.094;2022-11-20T08:43:29;24.10;56.80
47174;DHT22;36730;49.036;9.094;2022-11-20T08:45:56;24.10;56.70
47174;DHT22;36730;49.036;9.094;2022-11-20T08:48:21;24.10;56.50
47174;DHT22;36730;49.036;9.094;2022-11-20T08:50:47;24.10;56.70
47174;DHT22;36730;49.036;9.094;2022-11-20T08:53:12;24.00;56.70
47174;DHT22;36730;49.036;9.094;2022-11-20T08:55:38;24.00;56.60
47174;DHT22;36730;49.036;9.094;2022-11-20T08:58:05;24.10;56.70
47174;DHT22;36730;49.036;9.094;2022-11-20T09:00:30;24.10;56.70
47174;DHT22;36730;49.036;9.094;2022-11-20T09:02:56;24.10;56.70
47174;DHT22;36730;49.036;9.094;2022-11-20T09:05:21;24.00;56.90
47174;DHT22;36730;49.036;9.094;2022-11-20T09:07:47;24.10;56.90
47174;DHT22;36730;49.036;9.094;2022-11-20T09:10:12;24.00;56.80
47174;DHT22;36730;49.036;9.094;2022-11-20T09:12:37;24.00;56.90
47174;DHT22;36730;49.036;9.094;2022-11-20T09:15:03;24.10;57.00
47174;DHT22;36730;49.036;9.094;2022-11-20T09:17:28;24.10;57.00
47174;DHT22;36730;49.036;9.094;2022-11-20T09:19:54;24.00;56.80
47174;DHT22;36730;49.036;9.094;2022-11-20T09:22:19;24.10;56.90
47174;DHT22;36730;49.036;9.094;2022-11-20T09:24:45;24.10;57.00
47174;DHT22;36730;49.036;9.094;2022-11-20T09:27:10;24.10;57.00
47174;DHT22;36730;49.036;9.094;2022-11-20T09:29:36;24.10;57.60
47174;DHT22;36730;49.036;9.094;2022-11-20T09:32:01;24.10;57.00
47174;DHT22;36730;49.036;9.094;2022-11-20T09:34:27;24.10;56.90
47174;DHT22;36730;49.036;9.094;2022-11-20T09:36:52;24.10;57.50
47174;DHT22;36730;49.036;9.094;2022-11-20T09:39:18;24.20;57.00
47174;DHT22;36730;49.036;9.094;2022-11-20T09:44:34;24.20;57.20
47174;DHT22;36730;49.036;9.094;2022-11-20T09:47:07;24.10;57.20
47174;DHT22;36730;49.036;9.094;2022-11-20T09:54:37;24.20;57.20
47174;DHT22;36730;49.036;9.094;2022-11-20T09:57:05;24.10;57.10
47174;DHT22;36730;49.036;9.094;2022-11-20T09:59:35;24.20;57.20
47174;DHT22;36730;49.036;9.094;2022-11-20T10:02:08;24.20;57.30
47174;DHT22;36730;49.036;9.094;2022-11-20T10:04:37;24.10;57.20
47174;DHT22;36730;49.036;9.094;2022-11-20T10:07:13;24.20;57.20
47174;DHT22;36730;49.036;9.094;2022-11-20T10:09:43;24.20;57.30
47174;DHT22;36730;49.036;9.094;2022-11-20T10:14:54;24.20;57.20
47174;DHT22;36730;49.036;9.094;2022-11-20T10:17:42;24.20;57.40
47174;DHT22;36730;49.036;9.094;2022-11-20T10:20:20;24.20;57.30
47174;DHT22;36730;49.036;9.094;2022-11-20T10:30:40;24.30;57.30
47174;DHT22;36730;49.036;9.094;2022-11-20T10:33:15;24.30;57.20
47174;DHT22;36730;49.036;9.094;2022-11-20T10:35:43;24.30;57.30
47174;DHT22;36730;49.036;9.094;2022-11-20T10:38:14;24.30;57.20
47174;DHT22;36730;49.036;9.094;2022-11-20T10:40:43;24.30;57.20
47174;DHT22;36730;49.036;9.094;2022-11-20T10:45:36;24.30;57.30
47174;DHT22;36730;49.036;9.094;2022-11-20T10:48:10;24.30;57.40
47174;DHT22;36730;49.036;9.094;2022-11-20T10:50:36;24.30;57.40
47174;DHT22;36730;49.036;9.094;2022-11-20T10:53:08;24.30;57.50
47174;DHT22;36730;49.036;9.094;2022-11-20T10:58:49;24.40;57.70
47174;DHT22;36730;49.036;9.094;2022-11-20T11:01:18;24.30;57.50
47174;DHT22;36730;49.036;9.094;2022-11-20T11:03:44;24.30;57.60
47174;DHT22;36730;49.036;9.094;2022-11-20T11:06:15;24.30;57.40
47174;DHT22;36730;49.036;9.094;2022-11-20T11:08:44;24.40;57.60
47174;DHT22;36730;49.036;9.094;2022-11-20T11:13:39;24.40;57.60
47174;DHT22;36730;49.036;9.094;2022-11-20T11:16:05;24.40;57.50
47174;DHT22;36730;49.036;9.094;2022-11-20T11:18:34;24.40;57.50
47174;DHT22;36730;49.036;9.094;2022-11-20T11:21:00;24.40;57.60
47174;DHT22;36730;49.036;9.094;2022-11-20T11:23:39;24.40;57.50
47174;DHT22;36730;49.036;9.094;2022-11-20T11:26:24;24.40;57.50
47174;DHT22;36730;49.036;9.094;2022-11-20T11:28:54;24.40;57.60
47174;DHT22;36730;49.036;9.094;2022-11-20T11:31:26;24.40;57.60
47174;DHT22;36730;49.036;9.094;2022-11-20T11:34:02;24.40;57.60
47174;DHT22;36730;49.036;9.094;2022-11-20T11:36:28;24.40;57.60
47174;DHT22;36730;49.036;9.094;2022-11-20T11:38:53;24.50;58.00
47174;DHT22;36730;49.036;9.094;2022-11-20T11:41:23;24.40;57.70
47174;DHT22;36730;49.036;9.094;2022-11-20T11:43:51;24.40;57.70
47174;DHT22;36730;49.036;9.094;2022-11-20T11:46:35;24.40;57.70
47174;DHT22;36730;49.036;9.094;2022-11-20T11:51:41;24.40;58.20
47174;DHT22;36730;49.036;9.094;2022-11-20T11:54:14;24.50;57.80
47174;DHT22;36730;49.036;9.094;2022-11-20T11:56:41;24.50;57.70
47174;DHT22;36730;49.036;9.094;2022-11-20T11:59:06;24.50;57.90
47174;DHT22;36730;49.036;9.094;2022-11-20T12:01:42;24.50;57.70
47174;DHT22;36730;49.036;9.094;2022-11-20T12:04:14;24.50;57.70
47174;DHT22;36730;49.036;9.094;2022-11-20T12:06:43;24.50;57.90
47174;DHT22;36730;49.036;9.094;2022-11-20T12:09:10;24.50;57.80
47174;DHT22;36730;49.036;9.094;2022-11-20T12:16:28;24.50;57.90
47174;DHT22;36730;49.036;9.094;2022-11-20T12:18:55;24.60;57.80
47174;DHT22;36730;49.036;9.094;2022-11-20T12:26:53;24.50;57.70
47174;DHT22;36730;49.036;9.094;2022-11-20T12:34:58;24.60;58.00
47174;DHT22;36730;49.036;9.094;2022-11-20T12:39:58;24.60;58.00
47174;DHT22;36730;49.036;9.094;2022-11-20T12:45:26;24.60;58.10
47174;DHT22;36730;49.036;9.094;2022-11-20T12:53:25;24.60;58.10
47174;DHT22;36730;49.036;9.094;2022-11-20T12:55:56;24.60;58.00
47174;DHT22;36730;49.036;9.094;2022-11-20T12:58:27;24.60;58.00
47174;DHT22;36730;49.036;9.094;2022-11-20T13:01:03;24.60;58.10
47174;DHT22;36730;49.036;9.094;2022-11-20T13:03:38;24.60;58.20
47174;DHT22;36730;49.036;9.094;2022-11-20T13:06:19;24.60;58.10
47174;DHT22;36730;49.036;9.094;2022-11-20T13:08:48;24.60;57.90
47174;DHT22;36730;49.036;9.094;2022-11-20T13:11:36;24.70;58.00
47174;DHT22;36730;49.036;9.094;2022-11-20T13:14:07;24.70;57.90
47174;DHT22;36730;49.036;9.094;2022-11-20T13:17:09;24.70;57.90
47174;DHT22;36730;49.036;9.094;2022-11-20T13:19:25;24.70;58.10
47174;DHT22;36730;49.036;9.094;2022-11-20T13:21:52;24.70;58.10
47174;DHT22;36730;49.036;9.094;2022-11-20T13:29:46;24.70;58.00
47174;DHT22;36730;49.036;9.094;2022-11-20T13:34:37;24.70;57.90
47174;DHT22;36730;49.036;9.094;2022-11-20T13:37:02;24.80;57.90
47174;DHT22;36730;49.036;9.094;2022-11-20T13:39:32;24.70;57.90
47174;DHT22;36730;49.036;9.094;2022-11-20T13:42:20;24.80;58.00
47174;DHT22;36730;49.036;9.094;2022-11-20T13:44:48;24.80;58.30
47174;DHT22;36730;49.036;9.094;2022-11-20T13:47:25;24.80;58.10
47174;DHT22;36730;49.036;9.094;2022-11-20T13:49:52;24.80;58.00
47174;DHT22;36730;49.036;9.094;2022-11-20T13:55:11;24.80;57.90
47174;DHT22;36730;49.036;9.094;2022-11-20T14:02:29;24.80;57.80
47174;DHT22;36730;49.036;9.094;2022-11-20T14:04:56;24.80;57.90
47174;DHT22;36730;49.036;9.094;2022-11-20T14:07:24;24.70;57.80
47174;DHT22;36730;49.036;9.094;2022-11-20T14:09:52;24.70;57.70
47174;DHT22;36730;49.036;9.094;2022-11-20T14:12:19;24.80;57.80
47174;DHT22;36730;49.036;9.094;2022-11-20T14:14:50;24.80;57.90
47174;DHT22;36730;49.036;9.094;2022-11-20T14:17:23;24.80;57.80
47174;DHT22;36730;49.036;9.094;2022-11-20T14:19:51;24.80;57.80
47174;DHT22;36730;49.036;9.094;2022-11-20T14:22:21;24.80;57.80
47174;DHT22;36730;49.036;9.094;2022-11-20T14:24:47;24.80;57.80
47174;DHT22;36730;49.036;9.094;2022-11-20T14:27:14;24.70;57.80
47174;DHT22;36730;49.036;9.094;2022-11-20T14:29:39;24.80;57.90
47174;DHT22;36730;49.036;9.094;2022-11-20T14:32:08;24.80;57.80
47174;DHT22;36730;49.036;9.094;2022-11-20T14:34:35;24.80;57.70
47174;DHT22;36730;49.036;9.094;2022-11-20T14:37:03;24.80;58.00
47174;DHT22;36730;49.036;9.094;2022-11-20T14:39:34;24.80;57.90
47174;DHT22;36730;49.036;9.094;2022-11-20T14:42:00;24.80;57.90
47174;DHT22;36730;49.036;9.094;2022-11-20T14:44:27;24.80;57.80
47174;DHT22;36730;49.036;9.094;2022-11-20T14:46:54;24.80;57.70
47174;DHT22;36730;49.036;9.094;2022-11-20T14:49:20;24.80;57.80
47174;DHT22;36730;49.036;9.094;2022-11-20T14:51:45;24.80;57.80
47174;DHT22;36730;49.036;9.094;2022-11-20T14:54:15;24.80;57.90
47174;DHT22;36730;49.036;9.094;2022-11-20T14:56:41;24.80;57.80
47174;DHT22;36730;49.036;9.094;2022-11-20T14:59:07;24.80;57.90
47174;DHT22;36730;49.036;9.094;2022-11-20T15:01:33;24.70;57.80
47174;DHT22;36730;49.036;9.094;2022-11-20T15:03:59;24.80;57.90
47174;DHT22;36730;49.036;9.094;2022-11-20T15:06:26;24.80;58.20
47174;DHT22;36730;49.036;9.094;2022-11-20T15:08:52;24.80;58.10
47174;DHT22;36730;49.036;9.094;2022-11-20T15:11:18;24.80;58.20
47174;DHT22;36730;49.036;9.094;2022-11-20T15:13:44;24.80;58.20
47174;DHT22;36730;49.036;9.094;2022-11-20T15:16:20;24.80;58.10
47174;DHT22;36730;49.036;9.094;2022-11-20T15:18:46;24.80;58.10
47174;DHT22;36730;49.036;9.094;2022-11-20T15:21:12;24.80;58.10
47174;DHT22;36730;49.036;9.094;2022-11-20T15:23:38;24.80;58.00
47174;DHT22;36730;49.036;9.094;2022-11-20T15:26:07;24.80;58.00
47174;DHT22;36730;49.036;9.094;2022-11-20T15:28:37;24.80;57.90
47174;DHT22;36730;49.036;9.094;2022-11-20T15:31:04;24.80;58.00
47174;DHT22;36730;49.036;9.094;2022-11-20T15:33:30;24.80;58.00
47174;DHT22;36730;49.036;9.094;2022-11-20T15:35:56;24.80;58.10
47174;DHT22;36730;49.036;9.094;2022-11-20T15:38:22;24.80;58.00
47174;DHT22;36730;49.036;9.094;2022-11-20T15:40:47;24.80;57.90
47174;DHT22;36730;49.036;9.094;2022-11-20T15:43:13;24.80;57.90
47174;DHT22;36730;49.036;9.094;2022-11-20T15:45:39;24.80;58.00
47174;DHT22;36730;49.036;9.094;2022-11-20T15:48:15;24.80;57.90
47174;DHT22;36730;49.036;9.094;2022-11-20T15:51:27;24.80;58.00
47174;DHT22;36730;49.036;9.094;2022-11-20T15:53:27;24.80;58.10
47174;DHT22;36730;49.036;9.094;2022-11-20T15:55:53;24.80;57.90
47174;DHT22;36730;49.036;9.094;2022-11-20T15:58:19;24.80;57.90
47174;DHT22;36730;49.036;9.094;2022-11-20T16:00:44;24.70;58.10
47174;DHT22;36730;49.036;9.094;2022-11-20T16:03:10;24.70;58.00
47174;DHT22;36730;49.036;9.094;2022-11-20T16:05:36;24.70;58.10
47174;DHT22;36730;49.036;9.094;2022-11-20T16:08:01;24.70;58.00
47174;DHT22;36730;49.036;9.094;2022-11-20T16:10:27;24.80;58.00
47174;DHT22;36730;49.036;9.094;2022-11-20T16:12:52;24.80;58.00
47174;DHT22;36730;49.036;9.094;2022-11-20T16:15:36;24.80;58.60
47174;DHT22;36730;49.036;9.094;2022-11-20T16:18:15;24.80;58.00
47174;DHT22;36730;49.036;9.094;2022-11-20T16:20:41;24.80;57.60
47174;DHT22;36730;49.036;9.094;2022-11-20T16:23:06;24.80;57.70
47174;DHT22;36730;49.036;9.094;2022-11-20T16:25:32;24.80;57.60
47174;DHT22;36730;49.036;9.094;2022-11-20T16:27:58;24.80;57.50
47174;DHT22;36730;49.036;9.094;2022-11-20T16:30:23;24.80;57.30
47174;DHT22;36730;49.036;9.094;2022-11-20T16:32:49;24.80;57.40
47174;DHT22;36730;49.036;9.094;2022-11-20T16:35:14;24.80;57.20
47174;DHT22;36730;49.036;9.094;2022-11-20T16:37:40;24.80;57.20
47174;DHT22;36730;49.036;9.094;2022-11-20T16:40:07;24.70;57.40
47174;DHT22;36730;49.036;9.094;2022-11-20T16:42:33;24.80;57.40
47174;DHT22;36730;49.036;9.094;2022-11-20T16:44:58;24.70;57.50
47174;DHT22;36730;49.036;9.094;2022-11-20T16:47:23;24.70;57.60